Time;durP1;ratioP1;P1;durP2;ratioP2;P2;SDS_P1;SDS_P2;PMS_P1;PMS_P2;Temp;Humidity;BMP_temperature;BMP_pressure;BME280_temperature;BME280_humidity;BME280_pressure;Samples;Min_cycle;Max_cycle;Signal;HPM_P1;HPM_P2
2023/01/05 00:04:26;;;;;;;30.67;15.85;;;;;;;8.68;100.00;101070.59;10552539;27;20043;-75
2023/01/05 00:09:28;;;;;;;34.70;14.02;;;;;;;8.68;100.00;101087.06;10578470;28;20054;-74
2023/01/05 00:25:10;;;;;;;25.58;14.57;;;;;;;8.66;100.00;101080.97;10579779;27;20027;-75
2023/01/05 00:30:11;;;;;;;29.05;14.20;;;;;;;8.67;100.00;101082.63;10561493;28;20487;-74
2023/01/05 00:35:13;;;;;;;25.67;12.65;;;;;;;8.64;100.00;101083.13;10533737;28;20040;-75
2023/01/05 00:40:15;;;;;;;26.00;12.35;;;;;;;8.65;100.00;101076.53;10536903;28;20040;-75
2023/01/05 00:45:16;;;;;;;27.42;13.23;;;;;;;8.67;100.00;101085.38;10533651;28;20036;-76
2023/01/05 00:50:17;;;;;;;27.77;15.18;;;;;;;8.66;100.00;101102.94;10541089;28;20396;-74
2023/01/05 00:55:17;;;;;;;17.50;12.68;;;;;;;8.61;100.00;101099.22;10544390;28;20044;-76
2023/01/05 01:00:18;;;;;;;21.27;14.52;;;;;;;8.63;100.00;101108.06;10544550;28;20032;-76
2023/01/05 01:05:19;;;;;;;33.38;15.75;;;;;;;8.56;100.00;101097.19;10526287;28;20025;-74
2023/01/05 01:10:19;;;;;;;22.42;14.23;;;;;;;8.60;100.00;101111.25;10527043;28;20038;-74
2023/01/05 01:15:20;;;;;;;26.42;15.25;;;;;;;8.61;100.00;101105.53;10509292;28;20048;-74
2023/01/05 01:20:20;;;;;;;27.48;14.73;;;;;;;8.54;100.00;101109.44;10526341;28;20516;-75
2023/01/05 01:25:21;;;;;;;28.20;14.55;;;;;;;8.62;100.00;101106.38;10494152;28;20217;-75
2023/01/05 01:30:22;;;;;;;26.65;15.43;;;;;;;8.57;100.00;101104.34;10543141;28;20043;-76
2023/01/05 01:35:22;;;;;;;32.10;16.42;;;;;;;8.67;100.00;101125.72;10507998;28;20036;-75
2023/01/05 01:40:23;;;;;;;31.33;13.73;;;;;;;8.66;100.00;101119.41;10505133;28;20040;-74
2023/01/05 01:45:24;;;;;;;33.88;14.73;;;;;;;8.71;100.00;101131.59;10526499;28;20043;-75
2023/01/05 01:50:31;;;;;;;36.97;14.88;;;;;;;8.66;100.00;101129.53;10539499;28;20078;-75
2023/01/05 01:55:31;;;;;;;32.47;14.23;;;;;;;8.71;100.00;101142.56;10539067;28;20103;-74
2023/01/05 02:00:36;;;;;;;33.63;13.20;;;;;;;8.67;100.00;101143.03;10533934;28;20036;-70
2023/01/05 02:05:36;;;;;;;30.95;12.93;;;;;;;8.76;100.00;101156.41;10506958;28;20064;-75
2023/01/05 02:11:00;;;;;;;35.13;12.05;;;;;;;8.80;100.00;101158.44;10536837;28;20040;-71
2023/01/05 02:16:38;;;;;;;27.05;11.25;;;;;;;8.84;100.00;101158.81;10527366;28;20044;-75
2023/01/05 02:21:52;;;;;;;20.65;10.93;;;;;;;8.85;100.00;101152.28;10580251;27;20048;-75
2023/01/05 02:27:12;;;;;;;31.30;11.52;;;;;;;8.77;100.00;101147.13;10528930;28;20039;-74
2023/01/05 02:32:17;;;;;;;21.58;10.57;;;;;;;8.72;100.00;101141.47;10523067;28;20032;-73
2023/01/05 02:37:18;;;;;;;31.38;11.45;;;;;;;8.76;100.00;101140.75;10506404;28;20085;-74
2023/01/05 02:42:21;;;;;;;27.13;10.30;;;;;;;8.77;100.00;101142.47;10542020;27;20353;-74
2023/01/05 02:47:26;;;;;;;21.77;8.98;;;;;;;8.81;100.00;101151.06;10583020;27;20051;-74
2023/01/05 02:52:26;;;;;;;30.98;9.32;;;;;;;8.87;100.00;101156.44;10584772;27;20032;-73
2023/01/05 02:57:50;;;;;;;25.42;9.93;;;;;;;8.78;100.00;101151.53;10562588;27;20035;-75
2023/01/05 03:02:53;;;;;;;23.63;8.52;;;;;;;8.84;100.00;101156.91;10579032;27;20031;-73
2023/01/05 03:08:05;;;;;;;21.60;9.00;;;;;;;8.77;100.00;101160.84;10582575;27;20043;-74
2023/01/05 03:18:24;;;;;;;26.58;8.38;;;;;;;8.82;100.00;101178.25;10534087;28;20040;-75
2023/01/05 03:39:50;;;;;;;19.95;7.75;;;;;;;8.81;100.00;101186.75;10532847;28;20043;-74
2023/01/05 03:44:51;;;;;;;29.40;10.20;;;;;;;8.88;100.00;101198.47;10514612;28;20040;-74
2023/01/05 03:49:51;;;;;;;23.27;8.27;;;;;;;8.76;100.00;101183.88;10523059;28;20031;-73
2023/01/05 03:54:52;;;;;;;26.65;8.07;;;;;;;8.85;100.00;101209.91;10576672;28;20044;-73
2023/01/05 03:59:52;;;;;;;30.27;9.65;;;;;;;8.81;100.00;101215.03;10533978;28;20032;-75
2023/01/05 04:04:53;;;;;;;26.65;8.88;;;;;;;8.82;100.00;101215.88;10519823;28;20069;-73
2023/01/05 04:09:53;;;;;;;28.00;9.55;;;;;;;8.69;100.00;101228.72;10520674;28;20036;-73
2023/01/05 04:14:54;;;;;;;32.10;10.05;;;;;;;8.66;100.00;101237.44;10536552;28;20089;-73
2023/01/05 04:19:54;;;;;;;22.05;10.40;;;;;;;8.69;100.00;101236.94;10541015;28;20395;-74
2023/01/05 04:24:55;;;;;;;25.02;9.93;;;;;;;8.73;100.00;101255.72;10557188;28;20082;-74
2023/01/05 04:29:56;;;;;;;23.95;8.70;;;;;;;8.74;100.00;101251.88;10584307;27;20115;-75
2023/01/05 04:34:56;;;;;;;21.27;8.20;;;;;;;8.79;100.00;101263.03;10565377;27;20047;-74
2023/01/05 04:39:56;;;;;;;30.45;8.48;;;;;;;8.80;100.00;101264.69;10578660;28;20039;-75
2023/01/05 04:44:57;;;;;;;23.95;7.82;;;;;;;8.82;100.00;101259.78;10577955;28;20035;-73
2023/01/05 04:49:57;;;;;;;31.13;10.38;;;;;;;8.84;100.00;101268.63;10575594;28;20035;-74
2023/01/05 04:54:58;;;;;;;25.98;8.32;;;;;;;8.81;100.00;101258.13;10560038;28;20048;-73
2023/01/05 04:59:59;;;;;;;25.35;7.85;;;;;;;8.85;100.00;101268.41;10554219;28;20534;-74
2023/01/05 05:05:00;;;;;;;23.20;7.63;;;;;;;8.84;100.00;101263.97;10535170;28;20047;-74
2023/01/05 05:10:00;;;;;;;22.95;7.32;;;;;;;8.90;100.00;101264.97;10518944;28;20032;-75
2023/01/05 05:15:01;;;;;;;22.98;6.05;;;;;;;8.89;100.00;101279.78;10535529;28;20115;-74
2023/01/05 05:20:01;;;;;;;18.30;6.55;;;;;;;8.92;100.00;101282.03;10535287;28;20465;-74
2023/01/05 05:25:02;;;;;;;18.70;7.07;;;;;;;8.88;100.00;101286.31;10517845;28;20177;-74
2023/01/05 05:30:03;;;;;;;20.33;6.57;;;;;;;9.00;100.00;101303.69;10550714;28;20038;-74
2023/01/05 05:35:04;;;;;;;22.92;5.32;;;;;;;9.00;100.00;101300.94;10578899;27;20047;-75
2023/01/05 05:40:05;;;;;;;21.08;5.20;;;;;;;8.99;100.00;101299.28;10584783;27;20042;-74
2023/01/05 05:45:06;;;;;;;20.90;4.88;;;;;;;9.05;100.00;101314.81;10563607;27;20036;-74
2023/01/05 05:50:07;;;;;;;19.90;5.78;;;;;;;9.06;100.00;101321.97;10580156;27;20096;-74
2023/01/05 05:55:08;;;;;;;18.30;5.63;;;;;;;9.06;100.00;101321.97;10546566;28;20508;-74
2023/01/05 06:00:10;;;;;;;17.00;6.13;;;;;;;9.01;100.00;101324.59;10578718;27;20924;-74
2023/01/05 06:05:10;;;;;;;24.08;6.10;;;;;;;9.01;100.00;101335.59;10566575;27;20403;-74
2023/01/05 06:10:11;;;;;;;20.83;6.55;;;;;;;9.00;100.00;101339.38;10566717;27;20035;-74
2023/01/05 06:15:11;;;;;;;19.75;5.53;;;;;;;9.01;100.00;101351.19;10582457;27;20104;-75
2023/01/05 06:20:12;;;;;;;20.63;8.00;;;;;;;9.03;100.00;101365.53;10582838;27;20088;-74
2023/01/05 06:25:12;;;;;;;21.73;6.00;;;;;;;8.94;100.00;101356.78;10601052;27;20040;-73
2023/01/05 06:30:13;;;;;;;21.35;7.00;;;;;;;8.99;100.00;101384.41;10582037;27;20051;-75
2023/01/05 06:35:13;;;;;;;25.60;6.88;;;;;;;9.00;100.00;101393.47;10565849;27;20074;-74
2023/01/05 06:40:14;;;;;;;28.67;6.43;;;;;;;8.97;100.00;101396.66;10548949;28;20051;-73
2023/01/05 06:45:15;;;;;;;17.55;4.95;;;;;;;8.91;100.00;101401.19;10579629;27;20794;-75
2023/01/05 06:50:15;;;;;;;23.42;5.85;;;;;;;8.85;100.00;101407.63;10582038;28;20196;-74
2023/01/05 06:55:16;;;;;;;16.63;6.10;;;;;;;8.87;100.00;101416.47;10545004;27;20050;-74
2023/01/05 07:00:17;;;;;;;23.50;7.82;;;;;;;8.76;100.00;101415.28;10579717;27;20043;-75
2023/01/05 07:05:17;;;;;;;19.55;6.00;;;;;;;8.69;100.00;101439.25;10562484;27;20130;-72
2023/01/05 07:10:18;;;;;;;23.00;6.78;;;;;;;8.70;100.00;101432.69;10545754;27;20054;-74
2023/01/05 07:15:19;;;;;;;24.42;6.93;;;;;;;8.69;100.00;101440.09;10580465;27;20453;-72
2023/01/05 07:20:19;;;;;;;20.55;7.57;;;;;;;8.67;100.00;101444.13;10546739;27;20036;-74
2023/01/05 07:25:20;;;;;;;21.35;7.53;;;;;;;8.75;100.00;101456.72;10541416;27;20059;-74
2023/01/05 07:30:21;;;;;;;16.40;7.75;;;;;;;8.74;100.00;101457.78;10558372;28;20115;-74
2023/01/05 07:35:21;;;;;;;24.83;8.35;;;;;;;8.68;100.00;101457.63;10546619;28;20031;-73
2023/01/05 07:40:22;;;;;;;28.13;8.50;;;;;;;8.60;100.00;101465.31;10563449;27;20035;-74
2023/01/05 07:45:22;;;;;;;29.13;9.40;;;;;;;8.61;100.00;101462.34;10579951;27;20065;-74
2023/01/05 07:50:22;;;;;;;30.48;8.30;;;;;;;8.62;100.00;101465.91;10563457;27;20093;-74
2023/01/05 07:55:23;;;;;;;23.75;9.43;;;;;;;8.59;100.00;101475.44;10525390;28;20035;-75
2023/01/05 08:00:23;;;;;;;25.17;8.20;;;;;;;8.68;100.00;101493.31;10520004;28;20024;-74
2023/01/05 08:05:29;;;;;;;12.88;7.50;;;;;;;8.69;100.00;101508.72;10520062;28;20027;-74
2023/01/05 08:10:29;;;;;;;20.48;7.38;;;;;;;8.76;100.00;101516.88;10536943;28;20032;-74
2023/01/05 08:15:29;;;;;;;23.13;7.53;;;;;;;8.85;100.00;101522.94;10536467;28;20036;-74
2023/01/05 08:20:30;;;;;;;18.88;6.13;;;;;;;8.82;100.00;101526.94;10554644;28;20024;-73
2023/01/05 08:25:31;;;;;;;19.02;6.28;;;;;;;8.52;100.00;101480.19;10536514;28;20509;-74
2023/01/05 08:30:31;;;;;;;20.88;6.10;;;;;;;8.89;100.00;101546.13;10552821;28;20369;-74
2023/01/05 08:35:32;;;;;;;19.85;4.93;;;;;;;8.81;100.00;101541.75;10536436;28;20040;-74
2023/01/05 08:40:32;;;;;;;12.48;5.03;;;;;;;8.89;100.00;101562.59;10535656;28;20032;-75
2023/01/05 08:45:33;;;;;;;19.55;5.35;;;;;;;8.87;100.00;101570.22;10519543;28;20048;-74
2023/01/05 08:50:33;;;;;;;12.77;5.05;;;;;;;8.93;100.00;101582.19;10502781;28;20028;-74
2023/01/05 08:55:34;;;;;;;21.23;7.05;;;;;;;8.86;100.00;101574.03;10538580;28;20040;-74
2023/01/05 09:00:34;;;;;;;21.17;5.45;;;;;;;9.01;100.00;101599.25;10524990;28;20035;-74
2023/01/05 09:05:35;;;;;;;18.98;5.53;;;;;;;9.02;100.00;101620.13;10554904;28;20036;-74
2023/01/05 09:10:35;;;;;;;16.95;6.07;;;;;;;8.89;100.00;101634.00;10540960;28;20047;-74
2023/01/05 09:15:36;;;;;;;16.98;6.13;;;;;;;8.71;100.00;101642.16;10530985;27;20052;-75
2023/01/05 09:20:36;;;;;;;26.13;8.20;;;;;;;8.53;100.00;101653.91;10512975;27;20023;-75
2023/01/05 09:25:37;;;;;;;19.48;7.30;;;;;;;8.40;100.00;101658.38;10548627;28;20061;-75
2023/01/05 09:30:38;;;;;;;23.08;8.27;;;;;;;8.34;100.00;101666.66;10529447;28;20342;-74
2023/01/05 09:35:38;;;;;;;18.02;7.78;;;;;;;8.35;100.00;101677.44;10578750;27;20052;-75
2023/01/05 09:40:40;;;;;;;20.08;8.40;;;;;;;8.35;100.00;101687.53;10541683;27;20031;-75
2023/01/05 09:45:40;;;;;;;22.60;8.00;;;;;;;8.28;100.00;101680.19;10568175;27;20072;-74
2023/01/05 09:50:41;;;;;;;21.52;9.35;;;;;;;7.84;100.00;101615.25;10585682;27;20081;-74
2023/01/05 09:55:41;;;;;;;34.50;9.15;;;;;;;8.33;100.00;101686.91;10549947;27;20055;-75
2023/01/05 10:00:44;;;;;;;30.63;8.90;;;;;;;8.47;100.00;101716.00;10583469;27;20028;-74
2023/01/05 10:05:44;;;;;;;37.05;10.55;;;;;;;8.47;100.00;101727.84;10566178;27;20061;-74
2023/01/05 10:13:01;;;;;;;19.80;8.63;;;;;;;8.50;100.00;101720.22;10566386;28;20027;-76
2023/01/05 10:16:09;;;;;;;21.10;8.38;;;;;;;8.62;100.00;101723.94;10569238;27;20042;-75
2023/01/05 10:21:36;;;;;;;25.70;9.05;;;;;;;8.28;100.00;101680.19;10566869;27;20028;-75
2023/01/05 10:26:55;;;;;;;11.05;7.15;;;;;;;8.51;100.00;101709.00;10582042;27;20036;-76
2023/01/05 10:32:14;;;;;;;18.40;6.15;;;;;;;8.58;100.00;101719.94;10565121;28;20036;-76
2023/01/05 10:37:25;;;;;;;15.80;6.00;;;;;;;8.69;100.00;101730.25;10584321;27;20059;-75
2023/01/05 10:43:08;;;;;;;18.13;6.32;;;;;;;8.75;100.00;101731.25;10585302;27;20035;-76
2023/01/05 10:48:13;;;;;;;17.95;5.82;;;;;;;8.71;100.00;101728.13;10582486;28;20051;-74
2023/01/05 10:53:13;;;;;;;14.93;5.88;;;;;;;8.58;100.00;101731.78;10580991;27;20047;-75
2023/01/05 10:58:21;;;;;;;12.27;5.20;;;;;;;8.61;100.00;101750.53;10580713;27;20111;-76
2023/01/05 11:03:28;;;;;;;12.95;4.75;;;;;;;8.72;100.00;101748.16;10539454;28;20039;-75
2023/01/05 11:08:28;;;;;;;;;;;;;;;8.82;100.00;101754.00;10540957;28;20040;-75
2023/01/05 11:13:35;;;;;;;10.20;3.30;;;;;;;8.86;100.00;101747.00;10539114;28;20305;-75
2023/01/05 11:18:41;;;;;;;10.57;3.88;;;;;;;8.68;100.00;101707.44;10539211;28;20059;-75
2023/01/05 11:23:52;;;;;;;16.33;5.65;;;;;;;8.87;100.00;101746.81;10555768;28;20069;-76
2023/01/05 11:28:56;;;;;;;19.67;6.25;;;;;;;8.96;100.00;101750.13;10554466;28;20038;-75
2023/01/05 11:33:57;;;;;;;17.98;5.45;;;;;;;8.99;100.00;101721.34;10552786;27;20039;-75
2023/01/05 11:38:57;;;;;;;15.77;4.30;;;;;;;9.16;100.00;101738.16;10579847;27;20034;-74
2023/01/05 11:44:02;;;;;;;16.95;4.82;;;;;;;9.29;100.00;101743.53;10563535;27;20036;-75
2023/01/05 11:49:02;;;;;;;13.02;4.63;;;;;;;9.30;100.00;101745.19;10562703;27;20035;-76
2023/01/05 11:54:03;;;;;;;11.05;4.10;;;;;;;9.31;100.00;101757.03;10562344;27;20035;-76
2023/01/05 11:59:03;;;;;;;13.15;3.70;;;;;;;9.41;100.00;101741.72;10562274;27;20035;-74
2023/01/05 12:04:33;;;;;;;9.48;3.70;;;;;;;9.41;100.00;101751.88;10543598;28;20043;-75
2023/01/05 12:09:37;;;;;;;10.52;3.63;;;;;;;9.40;100.00;101756.53;10555834;27;20097;-74
2023/01/05 12:14:59;;;;;;;9.75;4.55;;;;;;;9.45;100.00;101747.63;10517645;28;20097;-73
2023/01/05 12:20:13;;;;;;;10.80;3.70;;;;;;;9.48;100.00;101749.91;10554172;28;20039;-73
2023/01/05 12:25:35;;;;;;;12.93;4.28;;;;;;;9.45;100.00;101762.19;10553783;28;20047;-73
2023/01/05 12:31:13;;;;;;;15.60;5.07;;;;;;;9.47;100.00;101757.31;10573616;28;20055;-74
2023/01/05 12:36:21;;;;;;;9.10;4.28;;;;;;;9.39;100.00;101763.09;10576838;28;20051;-73
2023/01/05 12:41:53;;;;;;;14.95;5.07;;;;;;;9.42;100.00;101765.38;10534012;28;20048;-75
2023/01/05 12:47:02;;;;;;;15.13;6.07;;;;;;;9.39;100.00;101760.34;10548169;28;20048;-73
2023/01/05 12:52:05;;;;;;;8.35;3.60;;;;;;;9.38;100.00;101758.66;10536621;28;20052;-74
2023/01/05 12:57:10;;;;;;;10.65;4.10;;;;;;;9.36;100.00;101760.78;10556731;28;20043;-74
2023/01/05 13:02:14;;;;;;;11.40;3.50;;;;;;;9.60;100.00;101783.00;10577188;28;20118;-74
2023/01/05 13:07:29;;;;;;;12.35;3.70;;;;;;;9.72;100.00;101789.44;10576910;28;20131;-74
2023/01/05 13:12:30;;;;;;;14.23;4.60;;;;;;;9.64;100.00;101796.06;10532396;28;20040;-74
2023/01/05 13:17:34;;;;;;;15.20;4.43;;;;;;;9.64;100.00;101786.97;10541723;28;20466;-74
2023/01/05 13:22:34;;;;;;;13.07;4.70;;;;;;;9.43;100.00;101782.72;10537149;28;1099931;-74
2023/01/05 13:27:35;;;;;;;11.43;4.25;;;;;;;9.53;100.00;101799.56;10577540;28;20547;-74
2023/01/05 13:33:13;;;;;;;14.13;5.00;;;;;;;9.45;100.00;101803.44;10559421;28;20043;-74
2023/01/05 13:38:51;;;;;;;9.60;4.30;;;;;;;9.45;100.00;101802.59;10595137;28;20103;-74
2023/01/05 13:44:12;;;;;;;15.20;4.25;;;;;;;9.41;100.00;101804.94;10549725;28;20040;-74
2023/01/05 13:49:28;;;;;;;12.98;4.68;;;;;;;9.44;100.00;101807.22;10528427;28;20066;-74
2023/01/05 13:54:41;;;;;;;9.55;4.57;;;;;;;9.47;100.00;101801.28;10552811;28;20040;-74
2023/01/05 13:59:41;;;;;;;15.07;5.15;;;;;;;9.07;100.00;101768.66;10542929;28;20125;-73
2023/01/05 14:04:44;;;;;;;17.65;5.70;;;;;;;9.35;100.00;101816.00;10542470;28;20032;-74
2023/01/05 14:09:50;;;;;;;16.48;6.97;;;;;;;9.27;100.00;101811.59;10490902;28;20066;-74
2023/01/05 14:15:11;;;;;;;14.55;5.68;;;;;;;9.28;100.00;101819.63;10571810;27;20043;-74
2023/01/05 14:20:33;;;;;;;19.50;6.80;;;;;;;9.26;100.00;101821.75;10598306;27;20103;-74
2023/01/05 14:25:37;;;;;;;17.33;5.78;;;;;;;9.26;100.00;101823.66;10585542;27;20039;-74
2023/01/05 14:30:37;;;;;;;18.10;5.80;;;;;;;9.26;100.00;101820.91;10583486;27;20127;-76
2023/01/05 14:35:37;;;;;;;18.50;5.72;;;;;;;9.17;100.00;101806.59;10582610;27;20040;-74
2023/01/05 14:40:43;;;;;;;12.35;6.07;;;;;;;9.16;100.00;101817.81;10581483;27;20038;-74
2023/01/05 14:45:43;;;;;;;20.55;7.10;;;;;;;9.17;100.00;101820.31;10599822;27;20040;-74
2023/01/05 14:50:44;;;;;;;15.13;5.63;;;;;;;9.24;100.00;101831.25;10566536;27;20051;-74
2023/01/05 14:55:50;;;;;;;17.35;5.78;;;;;;;9.23;100.00;101829.59;10565987;27;20042;-73
2023/01/05 15:00:55;;;;;;;17.92;5.78;;;;;;;9.20;100.00;101821.78;10581927;27;20066;-73
2023/01/05 15:06:10;;;;;;;15.00;5.65;;;;;;;9.15;100.00;101830.69;10580724;28;20042;-72
2023/01/05 15:11:27;;;;;;;19.25;7.25;;;;;;;9.11;100.00;101850.59;10537464;28;20040;-72
2023/01/05 15:16:48;;;;;;;16.67;6.22;;;;;;;9.08;100.00;101843.66;10518525;28;20514;-72
2023/01/05 15:22:21;;;;;;;23.15;6.72;;;;;;;8.99;100.00;101848.56;10524202;28;20035;-72
2023/01/05 15:27:40;;;;;;;15.10;6.78;;;;;;;9.01;100.00;101832.72;10516771;28;20044;-73
2023/01/05 15:32:42;;;;;;;23.25;7.22;;;;;;;8.95;100.00;101833.59;10522227;27;20493;-72
2023/01/05 15:37:43;;;;;;;26.08;7.53;;;;;;;8.84;100.00;101846.09;10520648;27;20036;-72
2023/01/05 15:42:44;;;;;;;24.52;8.50;;;;;;;7.89;100.00;101708.63;10494129;28;20043;-72
2023/01/05 15:47:44;;;;;;;22.75;8.80;;;;;;;8.68;100.00;101847.44;10517860;27;20032;-72
2023/01/05 15:52:59;;;;;;;28.20;10.23;;;;;;;8.65;100.00;101850.63;10538678;28;20031;-72
2023/01/05 15:58:04;;;;;;;39.30;10.07;;;;;;;8.51;100.00;101828.94;10513438;27;20047;-72
2023/01/05 16:03:25;;;;;;;27.70;9.52;;;;;;;8.52;100.00;101849.84;10519534;28;20049;-72
2023/01/05 16:08:26;;;;;;;26.05;8.80;;;;;;;8.41;100.00;101845.84;10517316;28;20051;-72
2023/01/05 16:13:39;;;;;;;31.25;10.10;;;;;;;8.40;100.00;101847.72;10530753;28;20111;-72
2023/01/05 16:18:41;;;;;;;29.77;9.70;;;;;;;8.40;100.00;101861.44;10515671;28;20044;-72
2023/01/05 16:23:51;;;;;;;36.35;9.65;;;;;;;8.44;100.00;101856.41;10495755;28;20060;-72
2023/01/05 16:28:52;;;;;;;27.70;9.32;;;;;;;8.22;100.00;101811.91;10548285;28;20723;-72
2023/01/05 16:34:14;;;;;;;25.83;10.50;;;;;;;8.34;100.00;101840.34;10514856;28;20036;-72
2023/01/05 16:39:22;;;;;;;23.98;10.55;;;;;;;8.36;100.00;101853.88;10503967;28;20127;-73
2023/01/05 16:44:22;;;;;;;32.83;9.88;;;;;;;8.26;100.00;101833.19;10531122;28;20047;-72
2023/01/05 16:49:34;;;;;;;37.60;10.20;;;;;;;8.22;100.00;101837.41;10512047;28;20067;-72
2023/01/05 16:54:38;;;;;;;38.10;12.95;;;;;;;8.20;100.00;101845.03;10538117;28;20067;-72
2023/01/05 16:59:38;;;;;;;29.92;10.10;;;;;;;8.16;100.00;101842.94;10515088;28;20044;-74
2023/01/05 17:04:39;;;;;;;33.92;9.88;;;;;;;8.15;100.00;101836.63;10513626;28;20706;-72
2023/01/05 17:09:41;;;;;;;23.88;9.57;;;;;;;8.17;100.00;101839.97;10515530;28;20032;-72
2023/01/05 17:14:44;;;;;;;30.17;10.15;;;;;;;8.12;100.00;101830.72;10511997;28;20036;-74
2023/01/05 17:19:45;;;;;;;27.55;11.55;;;;;;;8.25;100.00;101842.50;10481828;28;20040;-72
2023/01/05 17:24:45;;;;;;;21.50;9.98;;;;;;;8.28;100.00;101846.69;10529760;28;20036;-72
2023/01/05 17:29:46;;;;;;;26.27;10.52;;;;;;;8.30;100.00;101833.63;10538996;28;20062;-74
2023/01/05 17:34:46;;;;;;;41.97;10.25;;;;;;;8.31;100.00;101821.59;10534222;28;20036;-73
2023/01/05 17:39:47;;;;;;;32.78;10.40;;;;;;;8.05;100.00;101786.84;10565362;28;20047;-71
2023/01/05 17:44:47;;;;;;;40.72;11.10;;;;;;;8.25;100.00;101803.25;10547527;28;20032;-72
2023/01/05 17:49:48;;;;;;;29.15;12.10;;;;;;;8.22;100.00;101810.00;10547381;28;20073;-72
2023/01/05 17:54:48;;;;;;;30.00;10.82;;;;;;;8.14;100.00;101807.47;10583007;28;20050;-72
2023/01/05 17:59:49;;;;;;;33.03;11.63;;;;;;;8.14;100.00;101807.47;10562462;28;20069;-67
2023/01/05 18:04:49;;;;;;;52.08;13.00;;;;;;;8.11;100.00;101794.22;10563981;28;20079;-71
2023/01/05 18:09:50;;;;;;;33.30;11.15;;;;;;;8.09;100.00;101799.06;10556183;28;20032;-72
2023/01/05 18:14:50;;;;;;;36.85;10.18;;;;;;;8.09;100.00;101801.81;10525363;28;20419;-72
2023/01/05 18:19:51;;;;;;;40.95;10.60;;;;;;;8.12;100.00;101798.63;10563638;28;20123;-72
2023/01/05 18:24:51;;;;;;;35.22;10.35;;;;;;;8.12;100.00;101804.09;10562709;28;20047;-71
2023/01/05 18:29:52;;;;;;;28.88;10.38;;;;;;;8.18;100.00;101797.75;10580454;28;20046;-72
2023/01/05 18:34:52;;;;;;;53.58;14.98;;;;;;;8.19;100.00;101796.72;10581590;28;20035;-72
2023/01/05 18:39:53;;;;;;;45.08;12.93;;;;;;;8.23;100.00;101788.91;10581685;28;20036;-72
2023/01/05 18:44:53;;;;;;;45.67;12.27;;;;;;;8.22;100.00;101788.03;10562995;28;20031;-73
2023/01/05 18:49:56;;;;;;;42.25;11.48;;;;;;;8.26;100.00;101777.50;10550267;28;20027;-73
2023/01/05 18:54:56;;;;;;;34.75;10.30;;;;;;;8.28;100.00;101765.22;10568330;28;20043;-72
2023/01/05 18:59:57;;;;;;;46.35;12.88;;;;;;;8.29;100.00;101766.94;10527221;28;20036;-68
2023/01/05 19:04:58;;;;;;;36.38;15.32;;;;;;;8.23;100.00;101756.00;10578498;28;25188;-73
2023/01/05 19:09:58;;;;;;;48.55;13.75;;;;;;;8.31;100.00;101758.50;10519487;28;20035;-73
2023/01/05 19:14:58;;;;;;;32.22;11.27;;;;;;;8.29;100.00;101760.59;10580148;28;20039;-73
2023/01/05 19:19:59;;;;;;;34.78;11.75;;;;;;;8.27;100.00;101760.81;10562293;28;20040;-73
2023/01/05 19:24:59;;;;;;;32.80;12.45;;;;;;;8.21;100.00;101742.47;10580582;28;20061;-73
2023/01/05 19:30:00;;;;;;;44.83;13.35;;;;;;;8.16;100.00;101739.53;10579796;28;20233;-73
2023/01/05 19:35:01;;;;;;;56.22;12.80;;;;;;;8.22;100.00;101749.63;10579204;28;20069;-73
2023/01/05 19:40:01;;;;;;;37.10;14.00;;;;;;;8.22;100.00;101748.81;10562586;27;20035;-73
2023/01/05 19:45:02;;;;;;;44.42;16.00;;;;;;;8.07;100.00;101714.25;10578747;27;20040;-72
2023/01/05 19:50:03;;;;;;;41.20;15.27;;;;;;;8.22;100.00;101733.19;10563078;27;20043;-72
2023/01/05 19:55:04;;;;;;;50.72;17.63;;;;;;;8.24;100.00;101731.06;10528407;28;20043;-72
2023/01/05 20:00:06;;;;;;;49.25;16.90;;;;;;;8.31;100.00;101730.19;10578905;27;20095;-73
2023/01/05 20:05:07;;;;;;;49.60;18.95;;;;;;;8.32;100.00;101721.75;10562427;27;20060;-73
2023/01/05 20:10:08;;;;;;;43.33;17.90;;;;;;;8.33;100.00;101717.09;10536613;28;20024;-74
2023/01/05 20:15:10;;;;;;;52.75;18.90;;;;;;;8.34;100.00;101714.13;10545321;27;20069;-74
2023/01/05 20:20:11;;;;;;;49.35;18.20;;;;;;;8.24;100.00;101694.56;10577472;27;20032;-73
2023/01/05 20:25:12;;;;;;;47.13;18.52;;;;;;;8.38;100.00;101717.28;10535883;28;20095;-74
2023/01/05 20:30:12;;;;;;;48.65;17.65;;;;;;;8.41;100.00;101705.91;10536573;28;20062;-73
2023/01/05 20:35:13;;;;;;;43.90;18.50;;;;;;;8.42;100.00;101705.69;10560841;28;20077;-74
2023/01/05 20:40:13;;;;;;;46.85;19.15;;;;;;;8.45;100.00;101699.78;10576213;28;20050;-74
2023/01/05 20:45:14;;;;;;;48.83;20.90;;;;;;;8.40;100.00;101695.97;10576412;28;20048;-74
2023/01/05 20:50:15;;;;;;;54.05;21.10;;;;;;;8.47;100.00;101683.94;10560681;28;20040;-74
2023/01/05 20:55:15;;;;;;;65.30;24.77;;;;;;;8.50;100.00;101685.38;10594536;28;20050;-74
2023/01/05 21:00:17;;;;;;;62.10;24.33;;;;;;;8.54;100.00;101683.88;10578312;28;20061;-74
2023/01/05 21:05:17;;;;;;;68.70;26.55;;;;;;;8.57;100.00;101696.31;10559074;28;20060;-74
2023/01/05 21:10:18;;;;;;;77.00;27.83;;;;;;;8.61;100.00;101687.41;10577406;27;20047;-67
2023/01/05 21:15:19;;;;;;;68.70;28.73;;;;;;;8.58;100.00;101676.03;10586555;27;20043;-75
2023/01/05 21:20:19;;;;;;;71.30;27.42;;;;;;;8.61;100.00;101670.09;10586366;27;20040;-75
2023/01/05 21:25:21;;;;;;;77.00;29.33;;;;;;;8.68;100.00;101682.72;10567442;27;20051;-74
2023/01/05 21:30:22;;;;;;;67.43;28.88;;;;;;;8.74;100.00;101685.63;10584084;27;20099;-74
2023/01/05 21:35:22;;;;;;;80.75;33.53;;;;;;;8.75;100.00;101684.59;10583911;27;20070;-74
2023/01/05 21:40:24;;;;;;;74.88;30.23;;;;;;;8.78;100.00;101681.38;10584631;27;20035;-72
2023/01/05 21:45:24;;;;;;;71.20;28.98;;;;;;;8.72;100.00;101660.31;10584814;27;20040;-75
2023/01/05 22:01:04;;;;;;;75.72;30.65;;;;;;;8.79;100.00;101647.38;10559791;28;20058;-73
2023/01/05 22:06:05;;;;;;;83.18;30.88;;;;;;;8.77;100.00;101638.53;10544421;27;20058;-73
2023/01/05 22:11:05;;;;;;;68.22;28.27;;;;;;;8.88;100.00;101646.03;10545266;27;20035;-73
2023/01/05 22:16:06;;;;;;;71.30;28.85;;;;;;;8.92;100.00;101644.53;10565538;27;20403;-75
2023/01/05 22:21:07;;;;;;;80.53;31.90;;;;;;;8.91;100.00;101637.38;10565096;27;20043;-76
2023/01/05 22:26:15;;;;;;;68.28;29.67;;;;;;;8.95;100.00;101627.59;10530089;28;20039;-76
2023/01/05 22:31:20;;;;;;;83.38;32.42;;;;;;;8.96;100.00;101629.28;10542599;28;20122;-74
2023/01/05 22:36:21;;;;;;;81.53;35.03;;;;;;;9.00;100.00;101625.00;10580024;27;20521;-73
2023/01/05 22:41:24;;;;;;;78.97;31.38;;;;;;;9.04;100.00;101609.75;10582677;27;20515;-73
2023/01/05 22:46:26;;;;;;;71.38;31.73;;;;;;;9.12;100.00;101614.13;10581583;27;20487;-73
2023/01/05 22:51:31;;;;;;;73.03;33.42;;;;;;;9.12;100.00;101599.56;10577195;27;20040;-73
2023/01/05 22:56:32;;;;;;;70.57;32.58;;;;;;;8.60;100.00;101499.09;10576162;27;20054;-75
2023/01/05 23:01:38;;;;;;;82.32;32.00;;;;;;;9.20;100.00;101596.50;10563484;28;20039;-74
2023/01/05 23:06:38;;;;;;;68.90;32.42;;;;;;;9.24;100.00;101598.59;10580784;27;20039;-74
2023/01/05 23:11:39;;;;;;;78.35;34.08;;;;;;;9.27;100.00;101581.63;10563892;27;20394;-74
2023/01/05 23:16:40;;;;;;;71.97;33.50;;;;;;;9.33;100.00;101588.13;10581214;27;20123;-74
2023/01/05 23:21:41;;;;;;;75.35;32.80;;;;;;;9.34;100.00;101576.03;10583055;27;20035;-73
2023/01/05 23:26:41;;;;;;;68.93;32.92;;;;;;;9.38;100.00;101577.25;10580622;27;20032;-74
2023/01/05 23:31:42;;;;;;;66.85;32.97;;;;;;;9.41;100.00;101574.06;10561994;27;20066;-73
2023/01/05 23:36:42;;;;;;;61.03;29.17;;;;;;;9.40;100.00;101569.63;10579250;28;20050;-73
2023/01/05 23:41:43;;;;;;;57.85;29.13;;;;;;;9.43;100.00;101560.13;10577046;27;20042;-74